Time;durP1;ratioP1;P1;durP2;ratioP2;P2;SDS_P1;SDS_P2;PMS_P1;PMS_P2;Temp;Humidity;BMP_temperature;BMP_pressure;BME280_temperature;BME280_humidity;BME280_pressure;Samples;Min_cycle;Max_cycle;Signal;HPM_P1;HPM_P2
2021/06/13 00:01:08;;;;;;;6.97;2.72;;;;;;;8.27;55.75;96314.28;5021512;28;19975;-77
2021/06/13 00:03:34;;;;;;;9.63;3.22;;;;;;;8.02;57.26;96313.13;5013254;28;20606;-76
2021/06/13 00:06:00;;;;;;;7.50;3.00;;;;;;;8.30;56.21;96311.34;5014439;28;20116;-77
2021/06/13 00:08:26;;;;;;;5.53;2.90;;;;;;;8.17;56.43;96310.84;5031327;28;20638;-76
2021/06/13 00:10:51;;;;;;;5.32;3.10;;;;;;;7.96;60.18;96309.22;5032457;28;20094;-76
2021/06/13 00:13:16;;;;;;;7.05;2.78;;;;;;;8.22;56.09;96308.59;5021083;28;20101;-76
2021/06/13 00:15:42;;;;;;;9.57;2.90;;;;;;;7.91;56.56;96307.03;5013304;28;20113;-76
2021/06/13 00:18:08;;;;;;;4.50;3.00;;;;;;;8.03;59.23;96307.66;5012917;28;20084;-76
2021/06/13 00:20:34;;;;;;;5.20;2.90;;;;;;;7.81;57.41;96308.00;5031038;28;20136;-76
2021/06/13 00:23:00;;;;;;;8.65;3.17;;;;;;;7.84;56.90;96307.72;5015547;28;20485;-75
2021/06/13 00:25:25;;;;;;;7.28;3.15;;;;;;;7.78;56.89;96307.34;5030189;28;20074;-76
2021/06/13 00:27:50;;;;;;;4.10;2.75;;;;;;;7.87;56.91;96300.34;5023619;28;20117;-76
2021/06/13 00:30:16;;;;;;;5.97;3.00;;;;;;;7.74;58.17;96300.63;5023890;28;20430;-76
2021/06/13 00:32:42;;;;;;;6.63;2.83;;;;;;;7.71;57.17;96295.59;4993895;28;20804;-76
2021/06/13 00:35:08;;;;;;;5.65;3.00;;;;;;;7.58;57.30;96300.38;4999021;28;20139;-76
2021/06/13 00:37:33;;;;;;;7.80;3.22;;;;;;;7.54;57.73;96298.00;5031048;28;20086;-76
2021/06/13 00:39:58;;;;;;;6.32;3.03;;;;;;;7.48;58.25;96298.56;5030340;28;20595;-75
2021/06/13 00:42:29;;;;;;;6.00;2.95;;;;;;;7.47;57.36;96309.31;5099425;27;20247;-76
2021/06/13 00:44:55;;;;;;;8.70;3.25;;;;;;;7.32;58.06;96308.91;5026629;28;20522;-76
2021/06/13 00:47:20;;;;;;;7.05;2.80;;;;;;;7.59;59.33;96308.19;5051505;28;20154;-76
2021/06/13 00:49:46;;;;;;;5.03;2.90;;;;;;;7.40;58.79;96309.03;5066098;28;20085;-76
2021/06/13 00:52:11;;;;;;;8.07;3.03;;;;;;;7.59;56.03;96302.03;5076072;28;20158;-75
2021/06/13 00:54:36;;;;;;;5.63;2.80;;;;;;;7.53;56.92;96308.75;5062643;28;20116;-75
2021/06/13 00:57:02;;;;;;;11.88;3.13;;;;;;;7.48;57.30;96301.22;5039728;28;20080;-75
2021/06/13 00:59:27;;;;;;;7.30;2.80;;;;;;;7.28;56.61;96311.00;5039725;28;20101;-76
2021/06/13 01:01:53;;;;;;;4.45;3.00;;;;;;;7.31;56.19;96313.34;5078061;28;20100;-76
2021/06/13 01:04:18;;;;;;;8.27;3.15;;;;;;;7.36;56.82;96312.94;5066524;28;20109;-76
2021/06/13 01:07:02;;;;;;;9.75;3.38;;;;;;;7.57;55.33;96304.00;5079074;28;20100;-76
2021/06/13 01:09:28;;;;;;;9.02;3.50;;;;;;;7.57;55.32;96304.84;5062496;28;20919;-76
2021/06/13 01:12:02;;;;;;;5.15;3.10;;;;;;;7.78;55.03;96304.69;5066179;28;20195;-76
2021/06/13 01:14:38;;;;;;;7.65;3.22;;;;;;;8.27;52.95;96306.31;5076754;28;20079;-76
2021/06/13 01:17:21;;;;;;;7.15;3.00;;;;;;;8.01;53.17;96303.50;5078554;28;20727;-75
2021/06/13 01:20:13;;;;;;;6.28;3.03;;;;;;;8.21;52.90;96306.06;5065246;28;20183;-76
2021/06/13 01:23:07;;;;;;;9.50;3.60;;;;;;;8.10;53.73;96307.09;5074569;28;20602;-76
2021/06/13 01:25:38;;;;;;;6.68;3.03;;;;;;;8.26;52.69;96307.31;5083951;28;20437;-76
2021/06/13 01:28:29;;;;;;;6.50;3.00;;;;;;;8.18;52.40;96309.84;5060519;28;20167;-76
2021/06/13 01:30:54;;;;;;;8.45;3.28;;;;;;;8.15;52.52;96305.69;5078587;28;20100;-76
2021/06/13 01:33:19;;;;;;;8.30;2.90;;;;;;;8.28;52.43;96302.72;5051627;28;20490;-76
2021/06/13 01:35:45;;;;;;;6.03;2.92;;;;;;;8.54;51.48;96311.81;5084660;28;20096;-75
2021/06/13 01:38:12;;;;;;;11.02;3.40;;;;;;;8.40;51.93;96310.47;5056730;28;20080;-76
2021/06/13 01:40:37;;;;;;;9.43;3.17;;;;;;;8.52;51.57;96311.94;5076766;28;20573;-76
2021/06/13 01:43:03;;;;;;;7.15;2.90;;;;;;;8.76;50.66;96317.66;5045338;28;20097;-76
2021/06/13 01:45:31;;;;;;;9.52;3.17;;;;;;;8.72;50.73;96313.66;5061729;28;20418;-76
2021/06/13 01:47:56;;;;;;;6.55;3.42;;;;;;;8.44;52.10;96314.50;5084712;28;20107;-76
2021/06/13 01:50:23;;;;;;;7.57;3.20;;;;;;;8.29;51.71;96314.13;5055869;28;20073;-76
2021/06/13 01:52:49;;;;;;;10.43;3.20;;;;;;;8.11;52.35;96314.91;5072385;28;20488;-75
2021/06/13 01:55:15;;;;;;;6.88;3.22;;;;;;;8.15;52.27;96318.94;5036908;28;20465;-75
2021/06/13 01:57:41;;;;;;;6.88;3.20;;;;;;;8.39;52.23;96316.75;5040909;28;20160;-76
2021/06/13 02:00:11;;;;;;;5.35;2.75;;;;;;;8.54;50.77;96314.47;5051330;28;20108;-76
2021/06/13 02:02:36;;;;;;;7.78;2.90;;;;;;;8.71;50.88;96320.78;5036293;28;20159;-76
2021/06/13 02:05:06;;;;;;;11.05;3.42;;;;;;;8.72;50.55;96327.75;5051800;28;20089;-76
2021/06/13 02:07:35;;;;;;;7.63;2.60;;;;;;;8.73;51.18;96331.22;5041124;28;20150;-76
2021/06/13 02:10:02;;;;;;;4.95;2.60;;;;;;;8.65;52.33;96332.84;5027122;28;20070;-77
2021/06/13 02:12:27;;;;;;;6.15;2.83;;;;;;;8.51;50.93;96328.88;5032130;28;20187;-76
2021/06/13 02:14:52;;;;;;;7.10;2.58;;;;;;;8.48;51.51;96328.31;5045811;28;20108;-75
2021/06/13 02:17:18;;;;;;;7.97;3.00;;;;;;;8.47;53.27;96332.75;5058793;28;20081;-76
2021/06/13 02:19:44;;;;;;;4.85;2.70;;;;;;;8.46;52.84;96341.72;5064064;28;20098;-76
2021/06/13 02:22:10;;;;;;;5.40;3.00;;;;;;;8.40;50.54;96334.34;5061643;28;20086;-76
2021/06/13 02:24:36;;;;;;;3.80;2.28;;;;;;;8.52;52.29;96327.88;5036978;28;20104;-76
2021/06/13 02:27:03;;;;;;;7.45;3.30;;;;;;;8.50;53.14;96326.34;5035275;28;20101;-76
2021/06/13 02:29:29;;;;;;;3.90;2.80;;;;;;;8.49;52.47;96325.50;5061414;28;20151;-77
2021/06/13 02:31:55;;;;;;;7.88;3.17;;;;;;;8.44;52.18;96328.59;5049965;28;20119;-76
2021/06/13 02:34:25;;;;;;;4.95;2.97;;;;;;;8.33;53.97;96333.28;5065370;28;20087;-76
2021/06/13 02:36:52;;;;;;;7.30;2.90;;;;;;;8.27;54.74;96332.03;5058629;28;20074;-77
2021/06/13 02:39:18;;;;;;;6.47;3.00;;;;;;;8.17;52.46;96345.34;5037217;28;20147;-77
2021/06/13 02:41:44;;;;;;;7.28;3.30;;;;;;;7.74;52.97;96336.88;5055268;28;20148;-77
2021/06/13 02:44:10;;;;;;;10.88;3.47;;;;;;;7.40;54.08;96346.13;5046014;28;20105;-76
2021/06/13 02:46:35;;;;;;;7.15;3.13;;;;;;;7.66;54.49;96342.91;5054203;28;20322;-76
2021/06/13 02:49:02;;;;;;;6.72;2.70;;;;;;;7.83;55.79;96336.06;5054177;28;20553;-77
2021/06/13 02:51:33;;;;;;;6.28;3.13;;;;;;;7.84;51.21;96339.53;5036707;28;20116;-76
2021/06/13 02:53:59;;;;;;;10.13;3.28;;;;;;;7.87;52.83;96340.13;5042301;28;20077;-77
2021/06/13 02:56:54;;;;;;;7.18;3.10;;;;;;;7.79;51.33;96340.00;5042500;28;20636;-78
2021/06/13 02:59:50;;;;;;;4.43;2.50;;;;;;;7.96;52.63;96348.19;5051895;28;20128;-76
2021/06/13 03:02:21;;;;;;;6.10;3.10;;;;;;;8.05;53.06;96344.66;5054518;28;20114;-76
2021/06/13 03:04:47;;;;;;;5.72;2.42;;;;;;;8.03;55.21;96341.34;5046403;28;20160;-77
2021/06/13 03:07:16;;;;;;;7.18;3.20;;;;;;;8.03;54.13;96343.97;5053400;28;20101;-76
2021/06/13 03:09:42;;;;;;;5.65;2.88;;;;;;;8.07;54.23;96349.81;5064503;28;20073;-76
2021/06/13 03:12:08;;;;;;;7.80;3.25;;;;;;;8.05;54.87;96342.00;5058090;28;20097;-77
2021/06/13 03:14:33;;;;;;;5.80;2.90;;;;;;;8.07;52.57;96352.47;5034577;28;20108;-77
2021/06/13 03:16:59;;;;;;;7.35;3.08;;;;;;;8.05;52.51;96342.84;5046332;28;20119;-77
2021/06/13 03:19:27;;;;;;;5.20;2.70;;;;;;;7.98;52.65;96346.22;5039730;28;20101;-77
2021/06/13 03:21:53;;;;;;;7.13;3.10;;;;;;;7.78;54.64;96339.16;5042966;28;20127;-76
2021/06/13 03:24:19;;;;;;;5.97;3.08;;;;;;;7.96;53.10;96348.19;5033289;28;20132;-77
2021/06/13 03:26:45;;;;;;;4.95;2.60;;;;;;;7.98;53.96;96349.72;5062273;28;20123;-76
2021/06/13 03:29:10;;;;;;;6.63;3.30;;;;;;;7.99;51.07;96351.38;5048951;28;20538;-76
2021/06/13 03:31:36;;;;;;;7.45;3.45;;;;;;;7.90;53.88;96342.47;5029864;28;20105;-76
2021/06/13 03:34:01;;;;;;;9.50;3.60;;;;;;;7.94;53.20;96347.47;5032758;28;20088;-76
2021/06/13 03:36:28;;;;;;;8.30;3.30;;;;;;;8.02;53.26;96356.41;5047603;28;20124;-77
2021/06/13 03:38:53;;;;;;;10.65;4.35;;;;;;;7.97;50.97;96358.66;5035393;28;20103;-76
2021/06/13 03:41:19;;;;;;;10.38;4.70;;;;;;;8.00;51.99;96368.13;5043054;28;20651;-77
2021/06/13 03:43:45;;;;;;;9.65;3.67;;;;;;;7.87;54.40;96363.97;5038776;28;20135;-76
2021/06/13 03:46:11;;;;;;;9.20;4.40;;;;;;;7.91;54.17;96367.16;5034276;28;20077;-76
2021/06/13 03:48:36;;;;;;;12.38;3.88;;;;;;;8.14;51.71;96377.44;5047728;28;20166;-76
2021/06/13 03:51:02;;;;;;;11.95;4.10;;;;;;;7.95;51.50;96376.50;5062752;28;20108;-77
2021/06/13 03:53:27;;;;;;;7.43;3.15;;;;;;;8.24;52.14;96386.22;5050700;28;20120;-77
2021/06/13 03:55:53;;;;;;;5.93;2.95;;;;;;;8.26;50.78;96386.91;5047976;28;20473;-77
2021/06/13 03:58:22;;;;;;;8.63;3.80;;;;;;;8.22;51.01;96382.00;5034953;28;20134;-76
2021/06/13 04:00:48;;;;;;;8.48;3.50;;;;;;;8.24;52.59;96385.38;5060930;28;20100;-77
2021/06/13 04:03:14;;;;;;;7.28;3.45;;;;;;;8.27;50.60;96391.22;5058958;28;20105;-77
2021/06/13 04:05:40;;;;;;;9.27;3.50;;;;;;;8.27;51.29;96390.41;5036172;28;20080;-77
2021/06/13 04:08:07;;;;;;;8.30;3.03;;;;;;;8.46;52.40;96396.63;5032253;28;20105;-76
2021/06/13 04:10:32;;;;;;;5.65;2.80;;;;;;;8.42;52.66;96388.09;5056081;28;20099;-76
2021/06/13 04:12:58;;;;;;;10.50;3.67;;;;;;;8.28;50.05;96395.56;5050887;28;20078;-77
2021/06/13 04:15:24;;;;;;;6.72;3.00;;;;;;;8.41;53.02;96384.63;5035284;28;20112;-77
2021/06/13 04:17:50;;;;;;;5.18;2.75;;;;;;;8.56;53.35;96392.94;5058341;28;20088;-77
2021/06/13 04:20:15;;;;;;;9.18;3.38;;;;;;;8.75;50.90;96393.00;5031499;28;20113;-77
2021/06/13 04:22:41;;;;;;;9.68;2.97;;;;;;;8.86;52.24;96395.47;5035979;28;20176;-77
2021/06/13 04:25:08;;;;;;;6.88;3.40;;;;;;;8.85;53.08;96393.78;5051805;28;20080;-77
2021/06/13 04:27:34;;;;;;;10.40;3.30;;;;;;;8.77;51.75;96402.47;5034897;28;20239;-77
2021/06/13 04:30:00;;;;;;;5.20;2.80;;;;;;;8.98;52.09;96404.09;5049227;28;20092;-78
2021/06/13 04:32:26;;;;;;;9.32;3.70;;;;;;;9.02;49.90;96407.28;5044928;28;20121;-77
2021/06/13 04:34:51;;;;;;;8.35;3.58;;;;;;;8.87;50.62;96401.63;5034812;28;20104;-77
2021/06/13 04:37:17;;;;;;;7.10;3.10;;;;;;;8.84;51.74;96412.53;5052112;28;20083;-77
2021/06/13 04:39:42;;;;;;;9.55;3.40;;;;;;;8.80;51.82;96412.81;5047744;28;20159;-77
2021/06/13 04:42:08;;;;;;;11.23;3.50;;;;;;;8.96;50.77;96414.03;5051661;28;20117;-77
2021/06/13 04:44:34;;;;;;;9.35;3.60;;;;;;;8.63;52.94;96421.53;5066871;28;20085;-77
2021/06/13 04:47:00;;;;;;;8.77;3.97;;;;;;;8.95;50.80;96422.97;5030157;28;20125;-78
2021/06/13 04:49:25;;;;;;;11.60;3.70;;;;;;;9.07;51.35;96429.75;5055764;28;20116;-77
2021/06/13 04:51:53;;;;;;;9.52;3.60;;;;;;;9.11;50.44;96434.78;5059324;28;20111;-77
2021/06/13 04:54:30;;;;;;;9.70;3.85;;;;;;;9.08;50.52;96431.44;5034176;28;20130;-77
2021/06/13 04:57:18;;;;;;;9.98;3.60;;;;;;;9.18;50.01;96443.84;5054526;28;20088;-77
2021/06/13 04:59:43;;;;;;;10.18;3.80;;;;;;;9.49;51.18;96445.31;5046440;28;20199;-77
2021/06/13 05:02:08;;;;;;;6.22;3.08;;;;;;;9.54;50.36;96443.88;5052035;28;20620;-76
2021/06/13 05:04:34;;;;;;;8.73;3.65;;;;;;;9.73;51.58;96439.41;5045556;28;20115;-77
2021/06/13 05:07:03;;;;;;;10.00;3.65;;;;;;;9.89;49.74;96445.84;5063891;28;20101;-77
2021/06/13 05:09:30;;;;;;;12.70;4.30;;;;;;;9.84;51.10;96454.28;5062197;28;20556;-76
2021/06/13 05:11:55;;;;;;;12.75;4.32;;;;;;;9.55;49.46;96453.50;5060915;28;20093;-77
2021/06/13 05:14:20;;;;;;;7.40;3.25;;;;;;;9.80;50.44;96448.41;5039304;28;20212;-77
2021/06/13 05:16:46;;;;;;;7.72;3.05;;;;;;;10.06;50.63;96453.00;5059248;28;20123;-76
2021/06/13 05:19:11;;;;;;;9.43;4.07;;;;;;;10.07;50.23;96446.69;5062750;28;20147;-76
2021/06/13 05:21:37;;;;;;;10.32;4.22;;;;;;;9.78;48.45;96444.25;5063563;28;20093;-76
2021/06/13 05:24:02;;;;;;;10.48;3.83;;;;;;;9.65;50.05;96449.97;5057811;28;20094;-76
2021/06/13 05:26:28;;;;;;;12.93;3.90;;;;;;;9.52;49.52;96453.00;5058920;28;20111;-76
2021/06/13 05:28:54;;;;;;;12.38;4.20;;;;;;;9.54;49.29;96457.16;5051452;28;20559;-77
2021/06/13 05:31:19;;;;;;;12.45;4.00;;;;;;;9.60;49.12;96458.38;5061682;28;20124;-76
2021/06/13 05:33:45;;;;;;;7.10;3.03;;;;;;;9.91;49.66;96452.69;5036221;28;20080;-77
2021/06/13 05:36:10;;;;;;;13.38;3.70;;;;;;;9.83;47.55;96466.72;5050524;28;20112;-76
2021/06/13 05:38:38;;;;;;;10.23;3.67;;;;;;;9.24;49.43;96474.28;5045053;28;20108;-77
2021/06/13 05:41:03;;;;;;;9.00;3.28;;;;;;;9.67;50.79;96474.56;5065457;28;20136;-76
2021/06/13 05:43:28;;;;;;;10.48;4.05;;;;;;;10.01;47.78;96468.56;5056048;28;20449;-77
2021/06/13 05:45:54;;;;;;;7.03;3.10;;;;;;;10.44;50.30;96476.72;5070821;28;20532;-76
2021/06/13 05:48:19;;;;;;;6.88;3.13;;;;;;;10.55;46.85;96475.66;5057490;28;20155;-77
2021/06/13 05:50:45;;;;;;;10.90;3.53;;;;;;;10.41;46.58;96484.19;5062298;28;20105;-76
2021/06/13 05:53:10;;;;;;;10.25;3.60;;;;;;;10.96;45.28;96488.34;5048465;28;20115;-76
2021/06/13 05:55:36;;;;;;;8.60;3.30;;;;;;;11.37;45.55;96486.88;5058967;28;20093;-76
2021/06/13 05:58:01;;;;;;;8.07;3.10;;;;;;;11.03;48.70;96491.22;5047002;28;20077;-76
2021/06/13 06:00:31;;;;;;;7.93;2.90;;;;;;;11.08;48.39;96496.06;5056990;28;20104;-76
2021/06/13 06:02:57;;;;;;;11.48;3.80;;;;;;;10.68;46.51;96504.50;5058634;28;20547;-76
2021/06/13 06:05:22;;;;;;;10.63;3.45;;;;;;;10.45;45.92;96497.03;5040982;28;20085;-76
2021/06/13 06:07:49;;;;;;;9.85;3.30;;;;;;;10.81;45.76;96497.94;5036300;28;20421;-77
2021/06/13 06:10:14;;;;;;;14.57;3.83;;;;;;;10.90;45.29;96506.78;5053522;28;20065;-76
2021/06/13 06:12:42;;;;;;;10.60;3.30;;;;;;;11.67;44.47;96505.13;5042913;28;20079;-76
2021/06/13 06:15:08;;;;;;;9.82;3.55;;;;;;;11.45;43.87;96507.38;5054332;28;20101;-76
2021/06/13 06:17:34;;;;;;;9.60;3.35;;;;;;;11.29;47.76;96508.97;5038039;28;20085;-76
2021/06/13 06:20:00;;;;;;;5.75;2.85;;;;;;;11.53;41.81;96510.09;5043755;28;20672;-76
2021/06/13 06:22:25;;;;;;;8.75;3.25;;;;;;;11.93;44.48;96518.31;5031479;28;20108;-76
2021/06/13 06:24:51;;;;;;;6.45;2.97;;;;;;;12.05;42.48;96516.19;5059384;28;20081;-76
2021/06/13 06:27:16;;;;;;;7.97;3.17;;;;;;;11.88;44.14;96518.00;5046675;28;20225;-76
2021/06/13 06:29:42;;;;;;;8.48;3.15;;;;;;;11.80;41.85;96526.81;5062895;28;20081;-76
2021/06/13 06:32:07;;;;;;;10.50;3.15;;;;;;;11.82;44.20;96530.16;5056335;28;20089;-76
2021/06/13 06:34:32;;;;;;;6.68;3.10;;;;;;;11.80;41.86;96529.47;5058352;28;20081;-77
2021/06/13 06:36:58;;;;;;;5.90;3.08;;;;;;;11.64;42.97;96536.47;5061200;28;20081;-77
2021/06/13 06:39:23;;;;;;;7.57;3.00;;;;;;;11.88;40.17;96531.34;5058649;28;20108;-76
2021/06/13 06:41:49;;;;;;;7.65;2.95;;;;;;;12.37;42.68;96533.25;5035286;28;20118;-77
2021/06/13 06:44:14;;;;;;;9.82;2.90;;;;;;;12.35;41.79;96529.94;5047693;28;20108;-77
2021/06/13 06:46:40;;;;;;;10.02;3.17;;;;;;;12.65;38.82;96524.88;5025100;28;20101;-77
2021/06/13 06:49:06;;;;;;;8.50;3.30;;;;;;;11.80;40.46;96534.81;5044781;28;20119;-77
2021/06/13 06:51:32;;;;;;;7.78;3.08;;;;;;;12.72;38.83;96529.56;5033190;28;20585;-77
2021/06/13 06:53:57;;;;;;;6.88;3.30;;;;;;;12.81;40.11;96528.53;5027720;28;20080;-77
2021/06/13 06:56:24;;;;;;;6.70;2.90;;;;;;;13.23;40.19;96529.31;5037082;28;20101;-77
2021/06/13 06:58:49;;;;;;;9.40;3.20;;;;;;;13.00;39.76;96531.84;5034441;28;20472;-77
2021/06/13 07:01:15;;;;;;;9.00;3.35;;;;;;;13.04;39.38;96543.88;5055427;28;20093;-77
2021/06/13 07:03:40;;;;;;;8.50;3.38;;;;;;;13.25;40.15;96539.78;5051600;28;20463;-77
2021/06/13 07:06:05;;;;;;;5.03;3.30;;;;;;;13.51;37.08;96539.56;5035236;28;20541;-77
2021/06/13 07:08:31;;;;;;;9.68;3.28;;;;;;;13.55;38.84;96554.25;5040720;28;20109;-77
2021/06/13 07:10:56;;;;;;;12.18;6.53;;;;;;;13.56;38.46;96552.38;5046225;28;20159;-77
2021/06/13 07:13:22;;;;;;;9.68;4.70;;;;;;;13.37;39.81;96546.47;5049280;28;20082;-77
2021/06/13 07:15:48;;;;;;;15.15;10.23;;;;;;;13.68;40.92;96550.16;5051030;28;20561;-77
2021/06/13 07:18:13;;;;;;;8.13;3.70;;;;;;;13.90;36.52;96542.41;5041851;28;20172;-77
2021/06/13 07:20:39;;;;;;;19.17;12.90;;;;;;;13.43;41.70;96551.09;5041315;28;20450;-78
2021/06/13 07:23:05;;;;;;;11.60;6.43;;;;;;;12.51;37.90;96555.78;5062440;28;20112;-79
2021/06/13 07:25:30;;;;;;;13.73;6.07;;;;;;;13.41;40.01;96557.63;5053975;28;20077;-79
2021/06/13 07:27:56;;;;;;;6.35;3.25;;;;;;;13.33;36.18;96563.88;5031516;28;20121;-78
2021/06/13 07:30:22;;;;;;;12.43;5.93;;;;;;;13.90;37.23;96567.31;5051638;28;20081;-80
2021/06/13 07:32:48;;;;;;;9.75;4.20;;;;;;;13.24;38.60;96564.88;5041700;28;20449;-80
2021/06/13 07:35:13;;;;;;;6.25;2.67;;;;;;;14.31;34.95;96568.88;5058974;28;20157;-78
2021/06/13 07:37:40;;;;;;;7.15;3.17;;;;;;;14.51;34.54;96571.06;5037192;28;20172;-79
2021/06/13 07:40:06;;;;;;;7.63;3.00;;;;;;;14.11;34.37;96568.50;5067703;28;20100;-79
2021/06/13 07:42:31;;;;;;;7.82;3.15;;;;;;;14.09;35.12;96570.53;5047824;28;20113;-79
2021/06/13 07:44:57;;;;;;;6.60;2.90;;;;;;;14.38;34.69;96576.22;5058803;28;20084;-78
2021/06/13 07:47:22;;;;;;;8.38;3.20;;;;;;;14.50;34.28;96573.94;5032865;28;20112;-78
2021/06/13 07:49:48;;;;;;;8.95;3.42;;;;;;;14.02;35.98;96588.31;5042652;28;20555;-79
2021/06/13 07:52:13;;;;;;;6.18;3.03;;;;;;;14.40;34.35;96585.72;5047159;28;20108;-79
2021/06/13 07:54:39;;;;;;;6.35;2.90;;;;;;;14.90;32.82;96576.47;5046061;28;20102;-79
2021/06/13 07:57:05;;;;;;;6.80;3.38;;;;;;;14.77;34.45;96579.75;5018065;28;20123;-79
2021/06/13 07:59:30;;;;;;;5.38;2.60;;;;;;;14.87;33.48;96591.06;5042609;28;20128;-79
2021/06/13 08:01:56;;;;;;;8.45;3.13;;;;;;;14.86;33.99;96584.06;5025539;28;20093;-79
2021/06/13 08:04:21;;;;;;;6.78;2.95;;;;;;;15.02;32.47;96588.41;5050890;28;20093;-79
2021/06/13 08:06:47;;;;;;;6.85;2.92;;;;;;;15.14;33.18;96594.16;5044136;28;20172;-79
2021/06/13 08:09:12;;;;;;;6.35;2.60;;;;;;;15.69;31.95;96590.38;5050337;28;20083;-79
2021/06/13 08:11:38;;;;;;;6.03;2.80;;;;;;;15.72;31.31;96588.19;5030906;28;20176;-80
2021/06/13 08:14:03;;;;;;;7.65;2.80;;;;;;;15.75;31.49;96592.34;5032175;28;20081;-79
2021/06/13 08:16:29;;;;;;;8.98;3.30;;;;;;;15.71;33.03;96589.19;5053161;28;20170;-79
2021/06/13 08:18:54;;;;;;;8.82;3.70;;;;;;;14.80;34.87;96590.13;5060443;28;20208;-79
2021/06/13 08:21:20;;;;;;;6.25;2.90;;;;;;;15.83;30.74;96592.22;5052032;28;20100;-79
2021/06/13 08:23:46;;;;;;;7.45;3.50;;;;;;;16.05;30.34;96583.38;5032058;28;20129;-78
2021/06/13 08:26:11;;;;;;;6.78;3.30;;;;;;;15.45;33.00;96582.44;5048398;28;20093;-79
2021/06/13 08:28:37;;;;;;;6.80;2.85;;;;;;;15.48;31.21;96595.47;5059506;28;20084;-78
2021/06/13 08:31:02;;;;;;;7.22;3.03;;;;;;;15.77;31.06;96587.59;5062101;28;20105;-78
2021/06/13 08:33:28;;;;;;;8.32;2.97;;;;;;;15.87;30.69;96590.84;5044584;28;20139;-78
2021/06/13 08:35:53;;;;;;;6.40;3.08;;;;;;;15.64;32.93;96596.34;5046669;28;20477;-78
2021/06/13 08:38:21;;;;;;;8.15;3.00;;;;;;;16.09;31.70;96598.09;5047413;28;20081;-78
2021/06/13 08:40:47;;;;;;;6.80;3.50;;;;;;;16.02;32.51;96597.19;5033007;28;20152;-78
2021/06/13 08:43:13;;;;;;;6.88;3.10;;;;;;;16.58;30.52;96591.19;5037822;28;20101;-78
2021/06/13 08:45:38;;;;;;;8.18;3.50;;;;;;;16.58;32.49;96584.97;5032631;28;20536;-78
2021/06/13 08:48:04;;;;;;;6.85;2.95;;;;;;;16.60;28.88;96583.78;5066430;28;20100;-79
2021/06/13 08:50:31;;;;;;;9.07;3.33;;;;;;;16.72;31.24;96581.38;5030398;28;20085;-78
2021/06/13 08:52:56;;;;;;;7.13;3.00;;;;;;;16.69;31.08;96587.13;5049067;28;20493;-78
2021/06/13 08:55:23;;;;;;;5.43;2.92;;;;;;;17.10;31.27;96572.13;5052283;28;20101;-78
2021/06/13 08:57:49;;;;;;;7.35;2.80;;;;;;;18.09;26.70;96573.09;5058189;28;20108;-78
2021/06/13 09:00:21;;;;;;;8.48;3.08;;;;;;;17.86;27.40;96569.69;5029096;28;20111;-78
2021/06/13 09:02:46;;;;;;;10.50;2.90;;;;;;;17.71;27.96;96577.88;5049418;28;20553;-78
2021/06/13 09:05:13;;;;;;;4.88;2.83;;;;;;;17.72;28.45;96573.34;5055064;28;20081;-78
2021/06/13 09:07:56;;;;;;;6.57;2.83;;;;;;;17.60;27.47;96581.97;5057376;28;20132;-78
2021/06/13 09:10:23;;;;;;;5.60;2.50;;;;;;;17.77;26.76;96574.41;5054214;28;20611;-78
2021/06/13 09:12:49;;;;;;;6.65;2.70;;;;;;;18.35;25.66;96582.28;5061010;28;20078;-76
2021/06/13 09:15:16;;;;;;;9.98;2.90;;;;;;;18.20;26.20;96580.56;5062277;28;20109;-78
2021/06/13 09:17:42;;;;;;;5.97;3.00;;;;;;;17.91;28.29;96575.31;5054927;28;20104;-79
2021/06/13 09:20:20;;;;;;;5.32;2.67;;;;;;;17.89;26.06;96581.94;5039488;28;20180;-78
2021/06/13 09:23:15;;;;;;;4.20;2.30;;;;;;;18.53;25.28;96577.09;5063149;28;20109;-79
2021/06/13 09:25:42;;;;;;;4.18;2.50;;;;;;;18.56;25.83;96574.00;5045087;28;20556;-78
2021/06/13 09:28:17;;;;;;;6.55;2.50;;;;;;;18.48;23.98;96579.59;5043274;28;20478;-78
2021/06/13 09:30:47;;;;;;;6.13;2.63;;;;;;;17.87;25.71;96584.81;5043214;28;20119;-78
2021/06/13 09:33:18;;;;;;;5.60;2.70;;;;;;;16.97;27.59;96590.88;5039038;28;20105;-78
2021/06/13 09:35:44;;;;;;;4.82;2.70;;;;;;;16.59;28.51;96598.22;5040968;28;20203;-78
2021/06/13 09:38:10;;;;;;;4.38;2.50;;;;;;;16.73;27.46;96604.53;5041183;28;20077;-79
2021/06/13 09:40:36;;;;;;;7.35;2.70;;;;;;;17.08;25.96;96597.56;5060138;28;20119;-79
2021/06/13 09:43:11;;;;;;;10.93;3.17;;;;;;;17.00;28.06;96599.38;5054589;28;20109;-78
2021/06/13 09:45:37;;;;;;;4.35;2.47;;;;;;;17.12;26.03;96601.56;5056840;28;20145;-78
2021/06/13 09:48:02;;;;;;;7.40;3.92;;;;;;;17.16;29.28;96597.44;5059911;28;20100;-79
2021/06/13 09:50:38;;;;;;;6.88;2.80;;;;;;;17.86;26.91;96596.63;5065865;28;20561;-79
2021/06/13 09:53:33;;;;;;;5.47;2.40;;;;;;;18.36;26.36;96592.00;5049995;28;20223;-78
2021/06/13 09:56:04;;;;;;;7.35;2.85;;;;;;;18.98;25.92;96599.97;5054047;28;20105;-79
2021/06/13 09:58:30;;;;;;;5.10;2.42;;;;;;;18.94;25.85;96593.34;5050648;28;20092;-78
2021/06/13 10:01:04;;;;;;;5.03;2.80;;;;;;;19.35;25.78;96591.44;5060686;28;20093;-79
2021/06/13 10:03:34;;;;;;;5.88;2.80;;;;;;;19.54;26.65;96588.88;5034919;28;20104;-78
2021/06/13 10:06:00;;;;;;;6.20;2.58;;;;;;;18.93;26.23;96594.34;5048552;28;20108;-78
2021/06/13 10:08:28;;;;;;;6.70;2.60;;;;;;;18.93;23.69;96594.34;5049471;28;20166;-78
2021/06/13 10:10:54;;;;;;;6.20;3.13;;;;;;;19.31;25.64;96588.31;5050889;28;20101;-78
2021/06/13 10:13:21;;;;;;;6.82;2.70;;;;;;;19.53;25.61;96588.06;5045176;28;20537;-78
2021/06/13 10:15:50;;;;;;;8.10;2.53;;;;;;;19.43;25.06;96584.97;5057127;28;20116;-78
2021/06/13 10:18:16;;;;;;;6.97;2.75;;;;;;;19.75;24.46;96586.97;5067932;28;20146;-78
2021/06/13 10:20:42;;;;;;;4.78;2.60;;;;;;;20.11;24.23;96593.69;5043720;28;20088;-77
2021/06/13 10:23:07;;;;;;;7.22;2.80;;;;;;;20.10;25.11;96592.03;5057363;28;20097;-77
2021/06/13 10:25:33;;;;;;;5.00;2.72;;;;;;;18.93;25.20;96595.19;5033892;28;20089;-78
2021/06/13 10:27:58;;;;;;;7.07;2.75;;;;;;;19.28;26.73;96591.44;5056176;28;20109;-78
2021/06/13 10:30:24;;;;;;;5.25;2.88;;;;;;;19.43;24.87;96583.13;5049572;28;20089;-78
2021/06/13 10:32:50;;;;;;;6.63;2.72;;;;;;;19.55;26.71;96580.56;5051374;28;20074;-77
2021/06/13 10:35:15;;;;;;;5.22;2.63;;;;;;;19.36;25.00;96585.00;5050023;28;20105;-78
2021/06/13 10:37:41;;;;;;;5.88;2.92;;;;;;;19.17;24.56;96582.09;5059198;28;20087;-78
2021/06/13 10:40:07;;;;;;;6.30;2.83;;;;;;;20.04;22.82;96577.50;5057678;28;20113;-77
2021/06/13 10:42:35;;;;;;;4.82;2.65;;;;;;;19.90;23.60;96575.88;5034004;28;20105;-77
2021/06/13 10:45:01;;;;;;;7.57;2.80;;;;;;;20.12;23.79;96575.63;5051323;28;20076;-77
2021/06/13 10:47:28;;;;;;;5.90;2.47;;;;;;;20.30;24.10;96567.59;5058911;28;20112;-78
2021/06/13 10:49:54;;;;;;;7.03;2.83;;;;;;;20.29;24.00;96576.75;5030085;28;20077;-77
2021/06/13 10:52:28;;;;;;;5.00;2.40;;;;;;;21.00;24.86;96584.78;5058277;28;20109;-77
2021/06/13 10:55:01;;;;;;;3.75;2.60;;;;;;;20.04;25.48;96585.63;5041290;28;20365;-77
2021/06/13 10:57:28;;;;;;;5.43;2.50;;;;;;;20.13;23.54;96585.38;5024263;28;20077;-77
2021/06/13 10:59:57;;;;;;;6.90;2.50;;;;;;;20.91;26.03;96586.13;5047771;28;20104;-77
2021/06/13 11:02:27;;;;;;;5.13;2.50;;;;;;;20.14;24.50;96595.13;5027639;28;20093;-77
2021/06/13 11:04:53;;;;;;;4.97;2.88;;;;;;;20.49;23.37;96592.00;5039443;28;20108;-78
2021/06/13 11:10:06;;;;;;;5.35;2.40;;;;;;;21.58;23.90;96573.00;5053596;28;20568;-77
2021/06/13 11:12:47;;;;;;;8.05;2.85;;;;;;;21.11;25.40;96582.41;5048033;28;20573;-77
2021/06/13 11:15:27;;;;;;;4.28;2.30;;;;;;;20.23;22.48;96586.53;5035539;28;20538;-77
2021/06/13 11:18:20;;;;;;;7.00;2.50;;;;;;;19.97;23.95;96572.16;5050277;28;20352;-77
2021/06/13 11:23:23;;;;;;;6.07;2.50;;;;;;;20.48;22.24;96579.53;5046678;28;20505;-77
2021/06/13 11:25:49;;;;;;;5.43;2.50;;;;;;;20.66;22.22;96572.59;5049038;28;20533;-77
2021/06/13 11:28:27;;;;;;;6.55;2.47;;;;;;;19.53;24.94;96582.69;5053245;28;20112;-77
2021/06/13 11:30:59;;;;;;;4.07;2.38;;;;;;;20.26;26.90;96579.06;5050739;28;20182;-77
2021/06/13 11:33:38;;;;;;;5.95;2.90;;;;;;;20.16;21.67;96572.25;5053604;28;20069;-77
2021/06/13 11:36:21;;;;;;;5.05;2.30;;;;;;;20.49;23.86;96573.06;5036929;28;20143;-77
2021/06/13 11:39:13;;;;;;;5.03;2.50;;;;;;;20.60;25.24;96569.66;5052831;28;20109;-77
2021/06/13 11:41:43;;;;;;;4.97;2.53;;;;;;;20.72;24.63;96567.13;5049100;28;20113;-77
2021/06/13 11:44:35;;;;;;;7.13;3.42;;;;;;;20.83;24.00;96564.72;5056083;28;20121;-77